sensor_id;sensor_type;location;lat;lon;timestamp;temperature;humidity
40249;DHT22;25969;49.970;11.062;2023-08-21T04:09:18;20.40;99.90
40249;DHT22;25969;49.970;11.062;2023-08-21T04:19:19;20.40;99.90
40249;DHT22;25969;49.970;11.062;2023-08-21T04:29:21;20.40;99.90
40249;DHT22;25969;49.970;11.062;2023-08-21T04:39:21;20.30;99.90
40249;DHT22;25969;49.970;11.062;2023-08-21T04:49:23;20.20;99.90
40249;DHT22;25969;49.970;11.062;2023-08-21T04:59:24;20.40;99.90
40249;DHT22;25969;49.970;11.062;2023-08-21T05:09:26;20.50;99.90
40249;DHT22;25969;49.970;11.062;2023-08-21T05:19:28;20.60;99.90
40249;DHT22;25969;49.970;11.062;2023-08-21T05:29:29;20.90;99.90
40249;DHT22;25969;49.970;11.062;2023-08-21T05:39:30;21.10;99.90
40249;DHT22;25969;49.970;11.062;2023-08-21T05:49:31;21.40;99.90
40249;DHT22;25969;49.970;11.062;2023-08-21T05:59:32;21.70;99.90
40249;DHT22;25969;49.970;11.062;2023-08-21T06:09:36;22.00;99.90
40249;DHT22;25969;49.970;11.062;2023-08-21T06:19:37;22.40;99.90
40249;DHT22;25969;49.970;11.062;2023-08-21T06:29:38;22.80;99.90
40249;DHT22;25969;49.970;11.062;2023-08-21T06:39:41;23.30;99.90
40249;DHT22;25969;49.970;11.062;2023-08-21T06:49:41;24.10;99.90
40249;DHT22;25969;49.970;11.062;2023-08-21T06:59:42;24.50;99.90
40249;DHT22;25969;49.970;11.062;2023-08-21T07:09:43;24.90;99.90
40249;DHT22;25969;49.970;11.062;2023-08-21T07:19:44;26.10;99.90
40249;DHT22;25969;49.970;11.062;2023-08-21T07:29:44;26.80;99.90
40249;DHT22;25969;49.970;11.062;2023-08-21T07:39:45;27.60;99.90
40249;DHT22;25969;49.970;11.062;2023-08-21T07:49:46;28.30;99.80
40249;DHT22;25969;49.970;11.062;2023-08-21T07:59:46;29.40;97.30
40249;DHT22;25969;49.970;11.062;2023-08-21T08:09:47;29.50;95.60
40249;DHT22;25969;49.970;11.062;2023-08-21T08:19:48;30.30;93.80
40249;DHT22;25969;49.970;11.062;2023-08-21T08:29:49;30.90;90.50
40249;DHT22;25969;49.970;11.062;2023-08-21T08:39:50;31.60;87.30
40249;DHT22;25969;49.970;11.062;2023-08-21T08:49:51;31.90;85.20
40249;DHT22;25969;49.970;11.062;2023-08-21T08:59:54;32.30;82.50
40249;DHT22;25969;49.970;11.062;2023-08-21T09:09:55;31.90;80.30
40249;DHT22;25969;49.970;11.062;2023-08-21T09:20:03;32.20;76.10
40249;DHT22;25969;49.970;11.062;2023-08-21T09:30:09;33.40;71.50
40249;DHT22;25969;49.970;11.062;2023-08-21T09:40:10;33.80;65.70
40249;DHT22;25969;49.970;11.062;2023-08-21T09:50:11;33.60;64.00
40249;DHT22;25969;49.970;11.062;2023-08-21T10:00:12;33.80;62.60
40249;DHT22;25969;49.970;11.062;2023-08-21T10:10:17;34.50;59.60
40249;DHT22;25969;49.970;11.062;2023-08-21T10:20:21;34.20;59.20
40249;DHT22;25969;49.970;11.062;2023-08-21T10:30:25;34.90;56.30
40249;DHT22;25969;49.970;11.062;2023-08-21T10:40:26;34.70;55.60
40249;DHT22;25969;49.970;11.062;2023-08-21T10:50:28;34.70;54.10
40249;DHT22;25969;49.970;11.062;2023-08-21T11:00:28;35.00;53.90
40249;DHT22;25969;49.970;11.062;2023-08-21T11:10:31;35.40;55.20
40249;DHT22;25969;49.970;11.062;2023-08-21T11:20:34;34.90;54.10
40249;DHT22;25969;49.970;11.062;2023-08-21T11:30:35;35.50;52.40
40249;DHT22;25969;49.970;11.062;2023-08-21T11:40:36;35.30;50.10
40249;DHT22;25969;49.970;11.062;2023-08-21T11:50:37;34.90;51.20
40249;DHT22;25969;49.970;11.062;2023-08-21T12:00:39;35.40;51.30
40249;DHT22;25969;49.970;11.062;2023-08-21T12:10:40;35.80;51.20
40249;DHT22;25969;49.970;11.062;2023-08-21T12:20:41;36.80;47.30
40249;DHT22;25969;49.970;11.062;2023-08-21T12:30:42;37.00;45.40
40249;DHT22;25969;49.970;11.062;2023-08-21T12:40:42;41.30;40.20
40249;DHT22;25969;49.970;11.062;2023-08-21T12:50:43;42.20;36.80
40249;DHT22;25969;49.970;11.062;2023-08-21T13:00:44;42.00;34.10
40249;DHT22;25969;49.970;11.062;2023-08-21T13:10:44;43.60;34.20
40249;DHT22;25969;49.970;11.062;2023-08-21T13:20:45;41.70;37.60
40249;DHT22;25969;49.970;11.062;2023-08-21T13:30:46;38.20;43.00
40249;DHT22;25969;49.970;11.062;2023-08-21T13:40:47;41.30;40.00
40249;DHT22;25969;49.970;11.062;2023-08-21T13:50:47;39.20;40.70
40249;DHT22;25969;49.970;11.062;2023-08-21T14:00:48;38.50;42.60
40249;DHT22;25969;49.970;11.062;2023-08-21T14:10:49;38.20;40.20
40249;DHT22;25969;49.970;11.062;2023-08-21T14:20:49;37.60;41.20
40249;DHT22;25969;49.970;11.062;2023-08-21T14:30:50;36.00;44.20
40249;DHT22;25969;49.970;11.062;2023-08-21T14:40:52;35.50;45.70
40249;DHT22;25969;49.970;11.062;2023-08-21T14:50:53;36.00;46.20
40249;DHT22;25969;49.970;11.062;2023-08-21T15:00:55;36.10;45.50
40249;DHT22;25969;49.970;11.062;2023-08-21T15:10:56;35.60;47.50
40249;DHT22;25969;49.970;11.062;2023-08-21T15:20:57;35.60;47.40
40249;DHT22;25969;49.970;11.062;2023-08-21T15:30:58;35.90;45.70
40249;DHT22;25969;49.970;11.062;2023-08-21T15:40:58;35.50;46.80
40249;DHT22;25969;49.970;11.062;2023-08-21T15:50:59;35.30;47.50
40249;DHT22;25969;49.970;11.062;2023-08-21T16:01:00;34.80;48.20
40249;DHT22;25969;49.970;11.062;2023-08-21T16:11:01;34.40;49.80
40249;DHT22;25969;49.970;11.062;2023-08-21T16:21:02;34.00;49.60
40249;DHT22;25969;49.970;11.062;2023-08-21T16:31:03;33.70;51.20
40249;DHT22;25969;49.970;11.062;2023-08-21T16:41:03;34.00;50.00
40249;DHT22;25969;49.970;11.062;2023-08-21T16:51:04;33.80;50.90
40249;DHT22;25969;49.970;11.062;2023-08-21T17:01:05;33.60;50.70
40249;DHT22;25969;49.970;11.062;2023-08-21T17:11:06;32.90;52.80
40249;DHT22;25969;49.970;11.062;2023-08-21T17:21:06;32.10;61.90
40249;DHT22;25969;49.970;11.062;2023-08-21T17:31:07;30.70;64.90
40249;DHT22;25969;49.970;11.062;2023-08-21T17:41:08;29.70;68.90
40249;DHT22;25969;49.970;11.062;2023-08-21T17:51:09;28.50;73.20
40249;DHT22;25969;49.970;11.062;2023-08-21T18:01:11;27.50;75.70
40249;DHT22;25969;49.970;11.062;2023-08-21T18:11:11;26.60;79.70
40249;DHT22;25969;49.970;11.062;2023-08-21T18:21:12;25.80;81.20
40249;DHT22;25969;49.970;11.062;2023-08-21T18:31:13;25.50;82.30
40249;DHT22;25969;49.970;11.062;2023-08-21T18:41:14;25.00;84.10
40249;DHT22;25969;49.970;11.062;2023-08-21T18:51:15;24.70;85.10
40249;DHT22;25969;49.970;11.062;2023-08-21T19:01:16;24.30;86.70
40249;DHT22;25969;49.970;11.062;2023-08-21T19:11:16;24.10;87.30
40249;DHT22;25969;49.970;11.062;2023-08-21T19:21:17;23.90;87.50
40249;DHT22;25969;49.970;11.062;2023-08-21T19:31:18;24.00;86.60
40249;DHT22;25969;49.970;11.062;2023-08-21T19:41:19;23.90;87.10
40249;DHT22;25969;49.970;11.062;2023-08-21T19:51:21;24.00;88.10
40249;DHT22;25969;49.970;11.062;2023-08-21T20:01:22;23.70;88.40
40249;DHT22;25969;49.970;11.062;2023-08-21T20:11:24;23.80;88.60
40249;DHT22;25969;49.970;11.062;2023-08-21T20:21:25;23.80;88.30
40249;DHT22;25969;49.970;11.062;2023-08-21T20:31:28;23.70;89.00
40249;DHT22;25969;49.970;11.062;2023-08-21T20:41:29;23.60;90.00
40249;DHT22;25969;49.970;11.062;2023-08-21T20:51:31;23.60;90.00
40249;DHT22;25969;49.970;11.062;2023-08-21T21:01:32;23.50;90.50
40249;DHT22;25969;49.970;11.062;2023-08-21T21:11:32;23.40;90.70
40249;DHT22;25969;49.970;11.062;2023-08-21T21:21:33;23.40;91.00
40249;DHT22;25969;49.970;11.062;2023-08-21T21:31:37;23.20;91.40
40249;DHT22;25969;49.970;11.062;2023-08-21T21:41:38;23.10;91.70
40249;DHT22;25969;49.970;11.062;2023-08-21T21:51:38;23.00;91.90
